Time;durP1;ratioP1;P1;durP2;ratioP2;P2;SDS_P1;SDS_P2;PMS_P1;PMS_P2;Temp;Humidity;BMP_temperature;BMP_pressure;BME280_temperature;BME280_humidity;BME280_pressure;Samples;Min_cycle;Max_cycle;Signal;HPM_P1;HPM_P2
2022/05/07 00:00:36;;;;;;;23.77;20.02;;;11.60;99.90;;;;;;5078334;28;20106;-69
2022/05/07 00:03:02;;;;;;;21.55;19.33;;;11.60;99.90;;;;;;5072641;28;20097;-69
2022/05/07 00:05:28;;;;;;;21.55;19.25;;;11.60;99.90;;;;;;5080892;28;20384;-69
2022/05/07 00:07:53;;;;;;;20.92;18.83;;;11.60;99.90;;;;;;5075395;28;20073;-69
2022/05/07 00:10:19;;;;;;;21.58;19.48;;;11.60;99.90;;;;;;5094697;28;20411;-69
2022/05/07 00:12:45;;;;;;;23.00;18.90;;;11.70;99.90;;;;;;5100074;28;20028;-69
2022/05/07 00:15:11;;;;;;;21.02;18.67;;;11.70;99.90;;;;;;5081320;28;20527;-69
2022/05/07 00:20:33;;;;;;;20.70;18.60;;;11.70;99.90;;;;;;5069294;28;20171;-69
2022/05/07 00:23:00;;;;;;;22.25;19.85;;;11.60;99.90;;;;;;5085911;28;20563;-69
2022/05/07 00:25:27;;;;;;;23.05;20.75;;;11.70;99.90;;;;;;5079637;28;20131;-69
2022/05/07 00:27:53;;;;;;;25.15;21.55;;;11.60;99.90;;;;;;5079821;28;20449;-69
2022/05/07 00:30:18;;;;;;;26.35;22.15;;;11.60;99.90;;;;;;5079754;28;20290;-69
2022/05/07 00:32:44;;;;;;;26.80;22.17;;;11.60;99.90;;;;;;5077839;28;20480;-69
2022/05/07 00:35:10;;;;;;;24.48;21.92;;;11.60;99.90;;;;;;5100908;28;20524;-68
2022/05/07 00:37:39;;;;;;;25.17;22.67;;;11.60;99.90;;;;;;5080769;28;20056;-69
2022/05/07 00:40:06;;;;;;;25.77;22.90;;;11.60;99.90;;;;;;5101086;28;20032;-69
2022/05/07 00:42:32;;;;;;;25.42;22.67;;;11.70;99.90;;;;;;5064712;28;20543;-69
2022/05/07 00:44:57;;;;;;;23.63;21.13;;;11.60;99.90;;;;;;5078231;28;20109;-68
2022/05/07 00:47:28;;;;;;;23.77;21.48;;;11.70;99.90;;;;;;5096649;28;20089;-68
2022/05/07 00:51:33;;;;;;;24.92;22.55;;;11.70;99.90;;;;;;5097086;28;20040;-68
2022/05/07 00:52:45;;;;;;;22.48;20.20;;;11.60;99.90;;;;;;5080461;28;20051;-68
2022/05/07 00:55:12;;;;;;;27.23;22.98;;;11.70;99.90;;;;;;5077568;28;20028;-68
2022/05/07 00:57:38;;;;;;;26.15;22.55;;;11.70;99.90;;;;;;5080379;28;20391;-69
2022/05/07 01:00:08;;;;;;;27.02;23.05;;;11.70;99.90;;;;;;5077861;28;20044;-69
2022/05/07 01:02:36;;;;;;;24.15;21.85;;;11.70;99.90;;;;;;5079458;28;20491;-69
2022/05/07 01:05:02;;;;;;;26.23;23.35;;;11.70;99.90;;;;;;5083397;28;20072;-69
2022/05/07 01:07:29;;;;;;;23.95;21.45;;;11.80;99.90;;;;;;5081146;28;20475;-69
2022/05/07 01:09:55;;;;;;;24.75;22.15;;;11.80;99.90;;;;;;5101018;28;20111;-69
2022/05/07 01:12:21;;;;;;;24.83;22.13;;;11.80;99.90;;;;;;5079160;28;20048;-69
2022/05/07 01:14:46;;;;;;;25.10;22.45;;;11.80;99.90;;;;;;5099893;28;20048;-69
2022/05/07 01:17:12;;;;;;;24.85;22.33;;;11.80;99.90;;;;;;5097335;28;20470;-69
2022/05/07 01:19:38;;;;;;;25.60;23.00;;;11.80;99.90;;;;;;5081675;28;20040;-69
2022/05/07 01:22:04;;;;;;;26.55;21.65;;;11.90;99.90;;;;;;5082682;28;20101;-69
2022/05/07 01:24:30;;;;;;;24.48;22.10;;;11.90;99.90;;;;;;5084881;28;20380;-69
2022/05/07 01:26:55;;;;;;;26.52;22.95;;;12.00;99.90;;;;;;5094717;28;20043;-69
2022/05/07 01:29:21;;;;;;;23.85;21.42;;;12.00;99.90;;;;;;5081306;28;20040;-69
2022/05/07 01:31:47;;;;;;;25.20;22.70;;;12.00;99.90;;;;;;5078501;28;20043;-69
2022/05/07 01:34:12;;;;;;;26.15;23.52;;;12.00;99.90;;;;;;5097938;28;20040;-69
2022/05/07 01:36:38;;;;;;;25.00;22.58;;;12.00;99.90;;;;;;5077395;28;20042;-69
2022/05/07 01:39:04;;;;;;;24.63;22.15;;;12.10;99.90;;;;;;5097231;28;20082;-69
2022/05/07 01:41:30;;;;;;;24.52;22.02;;;12.10;99.90;;;;;;5075634;28;20036;-69
2022/05/07 01:43:55;;;;;;;25.58;22.58;;;12.10;99.90;;;;;;5079708;28;20472;-68
2022/05/07 01:49:06;;;;;;;24.50;22.00;;;12.10;99.90;;;;;;5075685;28;20047;-68
2022/05/07 01:51:31;;;;;;;25.25;22.80;;;12.10;99.90;;;;;;5097099;28;20036;-69
2022/05/07 01:53:57;;;;;;;24.60;22.25;;;12.20;99.90;;;;;;5079484;28;20089;-69
2022/05/07 01:56:23;;;;;;;25.98;23.27;;;12.20;99.90;;;;;;5077521;28;20476;-69
2022/05/07 01:58:49;;;;;;;23.85;21.45;;;12.20;99.90;;;;;;5077944;28;20040;-69
2022/05/07 02:01:17;;;;;;;24.15;21.63;;;12.20;99.90;;;;;;5082622;28;20044;-69
2022/05/07 02:03:42;;;;;;;25.70;22.98;;;12.20;99.90;;;;;;5076691;28;20362;-69
2022/05/07 02:06:08;;;;;;;25.92;23.20;;;12.20;99.90;;;;;;5079785;28;20047;-69
2022/05/07 02:08:37;;;;;;;26.63;23.75;;;12.30;99.90;;;;;;5077985;28;20028;-69
2022/05/07 02:11:02;;;;;;;25.25;22.95;;;12.30;99.90;;;;;;5078651;28;20032;-69
2022/05/07 02:13:29;;;;;;;23.50;20.95;;;12.30;99.90;;;;;;5078579;28;20044;-69
2022/05/07 02:15:54;;;;;;;25.83;23.23;;;12.30;99.90;;;;;;5077188;28;20036;-69
2022/05/07 02:18:20;;;;;;;25.80;23.20;;;12.40;99.90;;;;;;5098151;28;20569;-69
2022/05/07 02:20:46;;;;;;;25.67;23.08;;;12.30;99.90;;;;;;5097768;28;20105;-69
2022/05/07 02:23:11;;;;;;;26.13;23.63;;;12.30;99.90;;;;;;5063638;28;20048;-69
2022/05/07 02:25:37;;;;;;;26.60;23.83;;;12.40;99.90;;;;;;5097824;28;20059;-68
2022/05/07 02:28:04;;;;;;;26.83;23.98;;;12.40;99.90;;;;;;5077227;28;20053;-68
2022/05/07 02:30:29;;;;;;;26.85;24.15;;;12.30;99.90;;;;;;5075513;28;20051;-69
2022/05/07 02:32:55;;;;;;;26.55;23.60;;;12.30;99.90;;;;;;5095091;28;20032;-69
2022/05/07 02:35:22;;;;;;;27.60;24.70;;;12.40;99.90;;;;;;5098039;28;20089;-69
2022/05/07 02:37:48;;;;;;;26.92;24.20;;;12.40;99.90;;;;;;5075852;28;20052;-69
2022/05/07 02:40:13;;;;;;;25.58;22.95;;;12.30;99.90;;;;;;5096160;28;20100;-69
2022/05/07 02:42:39;;;;;;;24.95;22.35;;;12.30;99.90;;;;;;5099036;28;20047;-68
2022/05/07 02:45:07;;;;;;;26.90;23.88;;;12.30;99.90;;;;;;5078846;28;20345;-68
2022/05/07 02:47:34;;;;;;;26.75;23.83;;;12.30;99.90;;;;;;5067539;28;20062;-69
2022/05/07 02:50:01;;;;;;;25.23;22.70;;;12.30;99.90;;;;;;5094909;28;20092;-69
2022/05/07 02:52:27;;;;;;;27.17;24.38;;;12.30;99.90;;;;;;5080550;28;20043;-69
2022/05/07 02:54:52;;;;;;;26.98;24.33;;;12.30;99.90;;;;;;5099154;28;20046;-69
2022/05/07 02:57:18;;;;;;;27.10;24.40;;;12.20;99.90;;;;;;5095343;28;20085;-69
2022/05/07 02:59:44;;;;;;;27.90;24.95;;;12.20;99.90;;;;;;5096726;28;20039;-69
2022/05/07 03:02:10;;;;;;;26.40;23.63;;;12.20;99.90;;;;;;5076155;28;20499;-69
2022/05/07 03:04:36;;;;;;;26.08;23.48;;;12.20;99.90;;;;;;5078114;28;20039;-69
2022/05/07 03:07:02;;;;;;;29.73;25.52;;;12.20;99.90;;;;;;5067939;28;20044;-68
2022/05/07 03:09:28;;;;;;;26.27;23.50;;;12.30;99.90;;;;;;5076680;28;20142;-68
2022/05/07 03:11:54;;;;;;;26.67;23.98;;;12.30;99.90;;;;;;5082586;28;20138;-68
2022/05/07 03:14:19;;;;;;;29.52;25.65;;;12.30;99.90;;;;;;5102607;28;20034;-68
2022/05/07 03:16:47;;;;;;;27.95;25.25;;;12.20;99.90;;;;;;5081441;28;20388;-68
2022/05/07 03:19:12;;;;;;;27.13;24.35;;;12.20;99.90;;;;;;5079260;28;20521;-68
2022/05/07 03:21:38;;;;;;;27.75;24.85;;;12.20;99.90;;;;;;5072477;28;20082;-68
2022/05/07 03:24:04;;;;;;;26.63;23.92;;;12.20;99.90;;;;;;5082101;28;20044;-68
2022/05/07 03:26:30;;;;;;;28.45;25.35;;;12.10;99.90;;;;;;5095567;28;20043;-68
2022/05/07 03:28:56;;;;;;;29.25;26.25;;;12.10;99.90;;;;;;5079161;28;20409;-68
2022/05/07 03:31:22;;;;;;;24.65;22.27;;;12.00;99.90;;;;;;5107007;28;20144;-68
2022/05/07 03:33:48;;;;;;;28.65;25.58;;;12.00;99.90;;;;;;5095740;28;20035;-68
2022/05/07 03:36:15;;;;;;;28.83;25.65;;;12.10;99.90;;;;;;5077854;28;20043;-68
2022/05/07 03:38:41;;;;;;;27.33;24.00;;;12.00;99.90;;;;;;5078871;28;20479;-68
2022/05/07 03:41:07;;;;;;;29.02;26.05;;;12.00;99.90;;;;;;5068213;28;20119;-68
2022/05/07 03:43:37;;;;;;;28.38;25.63;;;12.00;99.90;;;;;;5081236;28;20104;-68
2022/05/07 03:46:05;;;;;;;28.48;25.50;;;12.00;99.90;;;;;;5103138;28;20028;-68
2022/05/07 03:48:31;;;;;;;28.63;25.63;;;12.00;99.90;;;;;;5084626;28;20122;-68
2022/05/07 03:50:57;;;;;;;26.45;23.95;;;12.00;99.90;;;;;;5081959;28;20111;-69
2022/05/07 03:53:32;;;;;;;27.58;24.88;;;12.00;99.90;;;;;;5083956;28;20032;-69
2022/05/07 03:55:59;;;;;;;26.15;23.73;;;12.00;99.90;;;;;;5100682;28;20036;-69
2022/05/07 03:58:26;;;;;;;27.08;24.38;;;12.00;99.90;;;;;;5100467;28;20047;-69
2022/05/07 04:00:57;;;;;;;27.02;24.23;;;12.00;99.90;;;;;;5103984;28;20399;-69
2022/05/07 04:03:23;;;;;;;26.52;23.85;;;12.00;99.90;;;;;;5098002;28;20043;-69
2022/05/07 04:05:50;;;;;;;27.17;24.48;;;12.00;99.90;;;;;;5099299;28;20032;-69
2022/05/07 04:08:16;;;;;;;26.38;23.83;;;12.00;99.90;;;;;;5082117;28;20051;-69
2022/05/07 04:10:45;;;;;;;28.63;25.63;;;12.00;99.90;;;;;;5081011;28;20032;-69
2022/05/07 04:13:12;;;;;;;27.65;24.15;;;12.00;99.90;;;;;;5090247;28;20123;-69
2022/05/07 04:15:38;;;;;;;26.77;24.08;;;12.00;99.90;;;;;;5096759;28;20032;-68
2022/05/07 04:18:07;;;;;;;26.40;23.67;;;12.10;99.90;;;;;;5061662;28;20441;-68
2022/05/07 04:20:33;;;;;;;27.23;24.63;;;12.10;99.90;;;;;;5078565;28;20044;-68
2022/05/07 04:22:59;;;;;;;27.67;24.83;;;12.10;99.90;;;;;;5080026;28;20044;-68
2022/05/07 04:25:25;;;;;;;27.80;24.92;;;12.10;99.90;;;;;;5076850;28;20404;-68
2022/05/07 04:27:51;;;;;;;27.52;24.92;;;12.10;99.90;;;;;;5084261;28;20052;-68
2022/05/07 04:30:17;;;;;;;30.05;27.00;;;12.20;99.90;;;;;;5099653;28;20041;-68
2022/05/07 04:32:43;;;;;;;27.95;25.27;;;12.20;99.90;;;;;;5065603;28;20439;-68
2022/05/07 04:35:08;;;;;;;27.52;24.75;;;12.20;99.90;;;;;;5081551;28;20106;-68
2022/05/07 04:37:34;;;;;;;27.23;24.38;;;12.20;99.90;;;;;;5100438;28;20362;-69
2022/05/07 04:40:00;;;;;;;27.83;25.23;;;12.20;99.90;;;;;;5080605;28;20044;-69
2022/05/07 04:42:26;;;;;;;27.67;24.95;;;12.30;99.90;;;;;;5100391;28;20039;-69
2022/05/07 04:44:51;;;;;;;28.33;25.50;;;12.30;99.90;;;;;;5082670;28;20104;-69
2022/05/07 04:47:17;;;;;;;26.67;24.08;;;12.30;99.90;;;;;;5096783;28;20038;-69
2022/05/07 04:49:43;;;;;;;27.08;24.27;;;12.40;99.90;;;;;;5077596;28;20048;-69
2022/05/07 04:52:10;;;;;;;27.25;24.42;;;12.40;99.90;;;;;;5080046;28;20497;-69
2022/05/07 04:54:36;;;;;;;28.90;25.33;;;12.50;99.90;;;;;;5077755;28;20032;-68
2022/05/07 04:57:02;;;;;;;26.10;23.60;;;12.50;99.90;;;;;;5098917;28;20039;-68
2022/05/07 04:59:28;;;;;;;28.40;25.42;;;12.50;99.90;;;;;;5096841;28;20558;-68
2022/05/07 05:01:53;;;;;;;27.73;24.88;;;12.50;99.90;;;;;;5080811;28;20123;-69
2022/05/07 05:04:19;;;;;;;26.63;23.95;;;12.50;99.90;;;;;;5076062;28;20040;-68
2022/05/07 05:06:45;;;;;;;27.38;24.70;;;12.60;99.90;;;;;;5081861;28;20188;-68
2022/05/07 05:09:12;;;;;;;27.70;24.83;;;12.60;99.90;;;;;;5094205;28;20077;-68
2022/05/07 05:11:39;;;;;;;28.20;25.42;;;12.60;99.90;;;;;;5078887;28;20036;-68
2022/05/07 05:16:50;;;;;;;28.10;25.30;;;12.70;99.90;;;;;;5074707;28;20042;-68
2022/05/07 05:19:16;;;;;;;29.33;26.58;;;12.70;99.90;;;;;;5092896;28;20484;-68
2022/05/07 05:21:42;;;;;;;30.15;27.13;;;12.70;99.90;;;;;;5094118;28;20047;-68
2022/05/07 05:24:08;;;;;;;28.73;26.02;;;12.80;99.90;;;;;;5079387;28;20078;-68
2022/05/07 05:26:34;;;;;;;31.33;25.70;;;12.80;99.90;;;;;;5076389;28;20105;-68
2022/05/07 05:29:00;;;;;;;28.38;25.45;;;12.90;99.90;;;;;;5081762;28;20056;-68
2022/05/07 05:31:28;;;;;;;28.85;25.95;;;12.90;99.90;;;;;;5080171;28;20044;-68
2022/05/07 05:33:54;;;;;;;27.17;24.42;;;13.00;99.90;;;;;;5061993;28;20054;-68
2022/05/07 05:36:20;;;;;;;29.30;26.20;;;13.00;99.90;;;;;;5094046;28;20040;-68
2022/05/07 05:38:46;;;;;;;28.27;25.38;;;13.10;99.90;;;;;;5094064;28;20043;-68
2022/05/07 05:41:12;;;;;;;28.02;25.38;;;13.20;99.90;;;;;;5078128;28;20092;-68
2022/05/07 05:43:40;;;;;;;26.30;23.77;;;13.20;99.90;;;;;;5098508;28;20407;-68
2022/05/07 05:46:05;;;;;;;27.40;24.67;;;13.20;99.90;;;;;;5095276;28;20574;-67
2022/05/07 05:48:31;;;;;;;28.25;25.17;;;13.30;99.90;;;;;;5092839;28;20040;-68
2022/05/07 05:50:57;;;;;;;27.98;24.50;;;13.40;99.90;;;;;;5078965;28;20110;-68
2022/05/07 05:53:23;;;;;;;27.88;24.92;;;13.50;99.90;;;;;;5077998;28;20527;-68
2022/05/07 05:55:49;;;;;;;27.83;25.00;;;13.50;99.90;;;;;;5077640;28;20075;-68
2022/05/07 05:58:15;;;;;;;30.00;26.80;;;13.50;99.90;;;;;;5076763;28;20528;-68
2022/05/07 06:00:41;;;;;;;27.13;24.52;;;13.60;99.90;;;;;;5079042;28;20043;-69
2022/05/07 06:03:07;;;;;;;26.95;24.25;;;13.70;99.90;;;;;;5073265;28;20051;-69
2022/05/07 06:05:33;;;;;;;27.60;24.90;;;13.80;99.90;;;;;;5078451;28;20048;-69
2022/05/07 06:07:59;;;;;;;26.70;24.00;;;13.80;99.90;;;;;;5072971;28;20123;-69
2022/05/07 06:10:25;;;;;;;26.20;23.52;;;13.90;99.90;;;;;;5058568;28;20079;-69
2022/05/07 06:12:51;;;;;;;26.00;23.38;;;14.10;99.90;;;;;;5075563;28;20044;-69
2022/05/07 06:15:17;;;;;;;26.58;23.90;;;14.20;99.90;;;;;;5093573;28;20499;-69
2022/05/07 06:17:43;;;;;;;23.90;21.40;;;14.30;99.90;;;;;;5075935;28;20138;-69
2022/05/07 06:20:09;;;;;;;23.75;21.55;;;14.50;99.90;;;;;;5077714;28;20059;-69
2022/05/07 06:22:35;;;;;;;21.50;19.35;;;14.60;99.90;;;;;;5078122;28;20138;-69
2022/05/07 06:27:45;;;;;;;21.35;19.33;;;14.90;99.90;;;;;;5074647;28;20105;-69
2022/05/07 06:30:11;;;;;;;22.80;20.58;;;15.00;99.90;;;;;;5077551;28;20122;-68
2022/05/07 06:32:38;;;;;;;23.88;21.10;;;15.10;99.90;;;;;;5092441;28;20040;-68
2022/05/07 06:35:08;;;;;;;22.80;20.40;;;15.20;99.90;;;;;;5092635;28;20395;-68
2022/05/07 06:37:36;;;;;;;22.92;20.77;;;15.30;99.90;;;;;;5092167;28;20070;-69
2022/05/07 06:40:04;;;;;;;23.40;21.02;;;15.30;99.90;;;;;;5081427;28;20051;-68
2022/05/07 06:42:30;;;;;;;24.15;21.73;;;15.40;99.90;;;;;;5092976;28;20052;-68
2022/05/07 06:44:56;;;;;;;24.50;22.00;;;15.50;99.90;;;;;;5077175;28;20047;-68
2022/05/07 06:47:22;;;;;;;22.90;20.70;;;15.50;99.90;;;;;;5080455;28;20514;-68
2022/05/07 06:49:48;;;;;;;24.23;21.73;;;15.60;99.90;;;;;;5075837;28;20229;-68
2022/05/07 06:52:14;;;;;;;23.50;21.17;;;15.60;99.90;;;;;;5095415;28;20141;-68
2022/05/07 06:54:40;;;;;;;23.17;20.98;;;15.70;99.90;;;;;;5074101;28;20380;-68
2022/05/07 06:57:06;;;;;;;22.35;20.15;;;15.80;99.90;;;;;;5093065;28;20039;-68
2022/05/07 06:59:33;;;;;;;21.73;19.52;;;16.00;99.90;;;;;;5077164;28;20040;-68
2022/05/07 07:01:59;;;;;;;21.45;19.25;;;16.20;99.90;;;;;;5099581;28;20096;-68
2022/05/07 07:04:25;;;;;;;20.23;18.20;;;16.30;99.90;;;;;;5075311;28;20474;-68
2022/05/07 07:06:51;;;;;;;18.60;16.63;;;16.40;99.90;;;;;;5073805;28;20079;-68
2022/05/07 07:09:17;;;;;;;19.23;16.95;;;16.60;99.90;;;;;;5059573;28;20143;-68
2022/05/07 07:11:43;;;;;;;19.92;16.90;;;16.60;99.90;;;;;;5071138;28;20059;-68
2022/05/07 07:14:09;;;;;;;17.00;15.40;;;16.70;99.90;;;;;;5077500;28;20044;-68
2022/05/07 07:16:35;;;;;;;17.05;14.80;;;16.80;99.90;;;;;;5076632;28;20050;-69
2022/05/07 07:19:01;;;;;;;17.30;14.60;;;16.90;99.90;;;;;;5094916;28;20093;-69
2022/05/07 07:21:27;;;;;;;17.48;14.27;;;16.90;99.90;;;;;;5082097;28;20047;-69
2022/05/07 07:23:53;;;;;;;15.40;13.95;;;17.00;99.90;;;;;;5096734;28;20084;-69
2022/05/07 07:26:18;;;;;;;17.40;15.43;;;17.00;99.90;;;;;;5064909;28;20108;-69
2022/05/07 07:28:46;;;;;;;16.35;14.65;;;17.10;99.90;;;;;;5081838;28;20063;-69
2022/05/07 07:31:13;;;;;;;15.50;13.52;;;17.30;99.90;;;;;;5099214;28;20036;-69
2022/05/07 07:33:39;;;;;;;17.38;13.77;;;17.50;99.90;;;;;;5074659;28;20048;-69
2022/05/07 07:36:11;;;;;;;16.25;13.95;;;17.60;99.40;;;;;;5081041;28;20047;-69
2022/05/07 07:38:38;;;;;;;15.10;13.55;;;17.60;99.00;;;;;;5095481;28;20046;-69
2022/05/07 07:41:07;;;;;;;14.95;13.30;;;17.60;98.40;;;;;;5098967;28;20578;-69
2022/05/07 07:43:33;;;;;;;14.77;13.27;;;17.60;98.30;;;;;;5095322;28;20056;-69
2022/05/07 07:48:44;;;;;;;17.88;15.95;;;17.40;97.50;;;;;;5073219;28;20109;-69
2022/05/07 07:51:10;;;;;;;18.45;16.65;;;17.40;97.50;;;;;;5079087;28;20058;-69
2022/05/07 07:53:38;;;;;;;19.05;17.15;;;17.40;98.10;;;;;;5077563;28;20036;-69
2022/05/07 07:56:04;;;;;;;21.45;19.20;;;17.80;98.80;;;;;;5085829;28;20071;-69
2022/05/07 07:58:30;;;;;;;20.40;18.23;;;18.20;97.80;;;;;;5075764;28;20040;-69
2022/05/07 08:00:56;;;;;;;19.83;17.67;;;18.60;97.50;;;;;;5094607;28;20085;-69
2022/05/07 08:03:22;;;;;;;21.42;19.08;;;18.70;96.80;;;;;;5079583;28;20040;-69
2022/05/07 08:05:51;;;;;;;22.42;20.13;;;18.80;96.50;;;;;;5090648;28;20326;-69
2022/05/07 08:13:48;;;;;;;23.52;21.08;;;18.50;96.20;;;;;;5079530;28;20372;-69
2022/05/07 08:16:14;;;;;;;23.65;21.25;;;18.40;96.70;;;;;;5097308;28;20034;-69
2022/05/07 08:18:41;;;;;;;23.23;21.02;;;18.70;97.00;;;;;;5096110;28;20134;-69
2022/05/07 08:21:08;;;;;;;23.20;20.83;;;18.80;96.90;;;;;;5095367;28;20093;-68
2022/05/07 08:23:35;;;;;;;22.15;20.05;;;18.80;95.90;;;;;;5098397;28;20071;-68
2022/05/07 08:26:04;;;;;;;22.17;19.67;;;18.80;95.60;;;;;;5075550;28;20044;-69
2022/05/07 08:28:31;;;;;;;24.00;20.25;;;18.70;95.80;;;;;;5078197;28;20542;-69
2022/05/07 08:30:57;;;;;;;22.80;20.52;;;18.70;95.60;;;;;;5080088;28;20044;-69
2022/05/07 08:33:23;;;;;;;22.85;20.35;;;18.60;95.10;;;;;;5099701;28;20032;-69
2022/05/07 08:35:48;;;;;;;22.55;20.30;;;18.60;95.20;;;;;;5082494;28;20044;-69
2022/05/07 08:38:14;;;;;;;23.52;21.00;;;18.60;95.70;;;;;;5098133;28;20032;-69
2022/05/07 08:40:41;;;;;;;22.13;19.83;;;18.60;95.70;;;;;;5071423;28;20435;-69
2022/05/07 08:43:07;;;;;;;23.33;20.42;;;18.60;95.50;;;;;;5078491;28;20492;-69
2022/05/07 08:45:36;;;;;;;21.75;19.75;;;18.50;95.40;;;;;;5076742;28;20040;-69
2022/05/07 08:48:02;;;;;;;22.92;20.10;;;18.50;95.50;;;;;;5096568;28;20119;-69
2022/05/07 08:50:28;;;;;;;23.98;21.42;;;18.40;95.90;;;;;;5099797;28;20507;-69
2022/05/07 08:52:54;;;;;;;24.88;21.05;;;18.30;95.70;;;;;;5080486;28;20412;-69
2022/05/07 08:55:20;;;;;;;22.80;20.50;;;18.30;95.40;;;;;;5101998;28;20345;-69
2022/05/07 08:57:51;;;;;;;23.73;21.17;;;18.30;95.90;;;;;;5102168;28;20039;-70
2022/05/07 09:00:22;;;;;;;25.65;23.00;;;18.20;95.60;;;;;;5098819;28;20360;-70
2022/05/07 09:02:54;;;;;;;23.45;21.15;;;18.10;96.20;;;;;;5080386;28;20357;-70
2022/05/07 09:05:30;;;;;;;24.60;22.15;;;18.10;95.80;;;;;;5080332;28;20386;-70
2022/05/07 09:07:58;;;;;;;25.77;23.10;;;18.00;96.00;;;;;;5099388;28;20044;-70
2022/05/07 09:10:32;;;;;;;25.90;23.10;;;18.10;96.20;;;;;;5064366;28;20040;-70
2022/05/07 09:13:15;;;;;;;26.20;23.65;;;18.10;96.30;;;;;;5098077;28;20044;-70
2022/05/07 09:15:54;;;;;;;26.85;24.23;;;18.00;96.30;;;;;;5100146;28;20531;-70
2022/05/07 09:18:21;;;;;;;26.02;23.20;;;17.90;96.20;;;;;;5102895;28;20044;-70
2022/05/07 09:21:25;;;;;;;27.55;24.70;;;17.90;96.70;;;;;;5080325;28;20044;-70
2022/05/07 09:24:08;;;;;;;25.50;22.90;;;18.00;96.60;;;;;;5092006;28;20138;-70
2022/05/07 09:26:43;;;;;;;26.83;24.13;;;18.00;96.50;;;;;;5097797;28;20032;-74
2022/05/07 09:29:11;;;;;;;25.77;22.90;;;18.10;96.20;;;;;;5081724;28;20131;-73
2022/05/07 09:31:43;;;;;;;27.30;24.38;;;18.10;96.10;;;;;;5064622;28;20044;-72
2022/05/07 09:37:01;;;;;;;25.52;22.85;;;18.30;96.40;;;;;;5074962;28;20167;-73
2022/05/07 09:39:34;;;;;;;25.52;22.90;;;18.50;97.10;;;;;;5058393;28;20114;-73
2022/05/07 09:42:01;;;;;;;26.70;24.02;;;18.70;96.00;;;;;;5072653;28;20383;-73
2022/05/07 09:44:30;;;;;;;25.63;22.92;;;18.70;96.10;;;;;;5058828;28;20521;-72
2022/05/07 09:46:56;;;;;;;26.42;22.65;;;18.90;95.70;;;;;;5079340;28;20109;-72
2022/05/07 09:49:25;;;;;;;25.15;22.67;;;19.00;95.40;;;;;;5056114;28;20052;-73
2022/05/07 09:51:53;;;;;;;26.00;23.50;;;19.00;94.50;;;;;;5077014;28;20032;-73
2022/05/07 09:59:51;;;;;;;27.20;23.23;;;19.00;94.30;;;;;;5076275;28;20082;-71
2022/05/07 10:02:56;;;;;;;25.92;23.33;;;19.00;94.00;;;;;;5077201;28;20180;-73
2022/05/07 10:05:31;;;;;;;26.50;24.05;;;19.10;93.70;;;;;;5063230;28;20131;-72
2022/05/07 10:08:32;;;;;;;25.20;22.73;;;18.90;94.20;;;;;;5079864;28;20565;-73
2022/05/07 10:10:58;;;;;;;26.83;24.08;;;19.00;94.20;;;;;;5079416;28;20039;-72
2022/05/07 10:13:24;;;;;;;26.25;23.65;;;19.00;94.30;;;;;;5080449;28;20047;-72
2022/05/07 10:16:03;;;;;;;26.60;23.90;;;19.10;94.50;;;;;;5077931;28;20101;-73
2022/05/07 10:18:35;;;;;;;26.80;23.98;;;19.10;94.60;;;;;;5085587;28;20138;-72
2022/05/07 10:21:16;;;;;;;26.10;23.30;;;19.20;94.50;;;;;;5061629;28;20090;-73
2022/05/07 10:23:56;;;;;;;27.70;24.90;;;19.20;94.10;;;;;;5075135;28;20074;-72
2022/05/07 10:26:24;;;;;;;26.13;23.42;;;19.20;94.20;;;;;;5076899;28;20052;-72
2022/05/07 10:28:50;;;;;;;26.58;24.05;;;19.10;94.20;;;;;;5079914;28;20436;-73
2022/05/07 10:31:24;;;;;;;27.55;24.85;;;19.00;94.20;;;;;;5077638;28;20046;-72
2022/05/07 10:33:51;;;;;;;27.40;24.00;;;19.00;94.60;;;;;;5063036;28;20098;-72
2022/05/07 10:36:19;;;;;;;29.80;25.30;;;19.00;95.10;;;;;;5060803;28;20044;-73
2022/05/07 10:38:46;;;;;;;26.83;24.35;;;19.10;95.30;;;;;;5074379;28;20059;-73
2022/05/07 10:41:12;;;;;;;26.52;23.85;;;19.20;94.50;;;;;;5078744;28;20523;-72
2022/05/07 10:43:42;;;;;;;25.52;22.92;;;19.30;94.00;;;;;;5079571;28;20453;-72
2022/05/07 10:46:13;;;;;;;25.38;22.75;;;19.30;92.90;;;;;;5066097;28;20044;-72
2022/05/07 10:48:52;;;;;;;24.33;21.80;;;19.40;92.20;;;;;;5058251;28;20162;-73
2022/05/07 10:51:31;;;;;;;23.85;21.40;;;19.50;90.00;;;;;;5086544;28;20051;-71
2022/05/07 10:54:03;;;;;;;26.02;22.50;;;19.60;90.70;;;;;;5063538;28;20143;-71
2022/05/07 10:56:33;;;;;;;24.92;22.33;;;19.80;90.50;;;;;;5078417;28;20091;-71
2022/05/07 10:59:00;;;;;;;24.65;21.42;;;20.00;89.90;;;;;;5079159;28;20083;-71
2022/05/07 11:01:28;;;;;;;23.70;21.50;;;20.30;90.20;;;;;;5080217;28;20141;-72
2022/05/07 11:04:05;;;;;;;24.23;21.77;;;20.50;88.60;;;;;;5064938;28;20056;-73
2022/05/07 11:06:43;;;;;;;25.92;23.45;;;20.50;88.10;;;;;;5087361;28;20511;-73
2022/05/07 11:09:26;;;;;;;25.60;23.23;;;20.50;88.00;;;;;;5076255;28;20285;-73
2022/05/07 11:11:56;;;;;;;25.63;23.13;;;20.50;86.80;;;;;;5075949;28;20168;-72
2022/05/07 11:14:26;;;;;;;26.58;23.88;;;20.40;86.30;;;;;;5079093;28;20056;-73
2022/05/07 11:16:56;;;;;;;25.27;22.98;;;20.40;86.50;;;;;;5093479;28;20142;-71
2022/05/07 11:19:32;;;;;;;24.55;22.23;;;20.50;86.70;;;;;;5080263;28;20055;-73
2022/05/07 11:22:02;;;;;;;25.55;23.05;;;20.80;86.90;;;;;;5076428;28;20102;-73
2022/05/07 11:24:30;;;;;;;24.13;21.92;;;21.10;84.50;;;;;;5082181;28;20054;-72
2022/05/07 11:27:06;;;;;;;23.20;20.83;;;21.20;82.30;;;;;;5070329;28;20155;-72
2022/05/07 11:29:34;;;;;;;23.02;20.27;;;21.40;80.80;;;;;;5074009;28;20048;-72
2022/05/07 11:32:07;;;;;;;22.17;20.15;;;21.50;82.00;;;;;;5072396;28;20403;-73
2022/05/07 11:34:33;;;;;;;21.60;19.67;;;21.60;79.40;;;;;;5057726;28;20040;-73
2022/05/07 11:37:15;;;;;;;21.70;19.45;;;21.60;80.60;;;;;;5085441;28;20419;-73
2022/05/07 11:39:56;;;;;;;20.75;18.88;;;21.80;77.90;;;;;;5074314;28;20639;-72
2022/05/07 11:42:30;;;;;;;19.55;17.65;;;21.80;76.50;;;;;;5077305;28;20092;-73
2022/05/07 11:48:05;;;;;;;20.15;18.20;;;21.90;76.10;;;;;;5078949;28;20112;-73
2022/05/07 11:50:33;;;;;;;19.70;17.52;;;22.00;73.00;;;;;;5075195;28;20036;-72
2022/05/07 11:53:16;;;;;;;18.92;17.05;;;21.90;74.80;;;;;;5076956;28;20048;-72
2022/05/07 11:55:43;;;;;;;17.95;16.27;;;21.70;72.20;;;;;;5077385;28;20508;-72
2022/05/07 11:58:23;;;;;;;19.50;17.52;;;21.50;73.70;;;;;;5078094;28;20055;-72
2022/05/07 12:00:55;;;;;;;19.40;16.08;;;21.40;73.70;;;;;;5078394;28;20048;-73
2022/05/07 12:03:28;;;;;;;18.73;16.75;;;21.20;73.60;;;;;;5076365;28;20477;-73
2022/05/07 12:05:55;;;;;;;19.73;17.83;;;21.00;74.30;;;;;;5081471;28;20068;-72
2022/05/07 12:08:23;;;;;;;22.58;19.30;;;20.90;76.30;;;;;;5083288;28;20051;-74
2022/05/07 12:10:51;;;;;;;23.02;20.67;;;20.90;77.80;;;;;;5084077;28;20089;-73
2022/05/07 12:13:20;;;;;;;20.05;18.05;;;20.90;77.80;;;;;;5079061;28;20051;-73
2022/05/07 12:18:30;;;;;;;21.27;19.10;;;20.90;78.10;;;;;;5079777;28;20463;-73
2022/05/07 12:20:57;;;;;;;21.17;19.08;;;21.10;78.20;;;;;;5089396;28;20043;-73
2022/05/07 12:31:36;;;;;;;22.88;20.42;;;21.20;77.00;;;;;;5077526;28;20123;-73
2022/05/07 12:34:02;;;;;;;24.35;20.95;;;20.90;76.90;;;;;;5079686;28;20169;-73
2022/05/07 12:36:28;;;;;;;23.65;21.02;;;20.70;77.90;;;;;;5065731;28;20446;-73
2022/05/07 12:38:54;;;;;;;22.35;19.77;;;20.50;78.10;;;;;;5067417;28;20129;-73
2022/05/07 12:41:20;;;;;;;25.38;20.95;;;20.50;78.70;;;;;;5084316;28;20352;-72
2022/05/07 12:43:46;;;;;;;24.05;20.70;;;20.60;78.90;;;;;;5080076;28;20063;-73
2022/05/07 12:46:11;;;;;;;26.17;23.33;;;20.50;77.60;;;;;;5082082;28;20043;-70
2022/05/07 12:48:38;;;;;;;27.17;24.25;;;20.40;79.00;;;;;;5099986;28;20042;-69
2022/05/07 12:51:04;;;;;;;29.50;25.70;;;20.30;80.80;;;;;;5081317;28;20035;-70
2022/05/07 12:53:30;;;;;;;29.25;25.98;;;20.50;81.50;;;;;;5082443;28;20458;-71
2022/05/07 12:55:56;;;;;;;30.48;26.40;;;20.70;81.20;;;;;;5065553;28;20044;-69
2022/05/07 12:58:22;;;;;;;30.13;25.88;;;21.00;81.10;;;;;;5096488;28;20051;-71
2022/05/07 13:00:47;;;;;;;28.15;25.25;;;21.20;79.80;;;;;;5078449;28;20769;-70
2022/05/07 13:03:13;;;;;;;32.50;29.00;;;21.10;79.20;;;;;;5080285;28;20490;-71
2022/05/07 13:05:39;;;;;;;31.00;27.80;;;21.10;79.30;;;;;;5080380;28;20110;-72
2022/05/07 13:08:08;;;;;;;30.25;25.25;;;21.30;79.30;;;;;;5046535;28;20074;-71
2022/05/07 13:10:34;;;;;;;31.83;27.02;;;21.50;78.90;;;;;;5090743;28;20488;-71
2022/05/07 13:13:01;;;;;;;34.45;26.17;;;21.30;78.50;;;;;;5079150;28;20039;-73